Time,TemperatureF,DewpointF,PressureIn,WindDirection,WindDirectionDegrees,WindSpeedMPH,WindSpeedGustMPH,Humidity,HourlyPrecipIn,Conditions,Clouds,dailyrainin,SolarRadiationWatts/m^2,SoftwareType,DateUTC
2013-10-05 00:01:00,65.7,61.4,29.76,North,5,17.0,17.0,86,0.45,,---,0.00,0.00,VWS V14.01,2013-10-05 05:01:00,
2013-10-05 00:06:00,64.4,59.5,29.77,NNE,24,24.0,24.0,84,0.45,,---,0.00,0.00,VWS V14.01,2013-10-05 05:06:00,
2013-10-05 00:11:00,61.8,55.6,29.77,North,355,15.0,17.0,80,0.45,,---,0.00,0.00,VWS V14.01,2013-10-05 05:11:00,
2013-10-05 00:16:00,61.3,54.7,29.77,NNE,31,20.0,20.0,79,0.45,,---,0.00,0.00,VWS V14.01,2013-10-05 05:16:00,
2013-10-05 00:21:00,61.3,54.0,29.78,NNE,25,21.0,24.0,77,0.45,,---,0.00,0.00,VWS V14.01,2013-10-05 05:21:00,
2013-10-05 00:26:00,61.4,53.8,29.79,North,11,10.0,18.0,76,0.45,,---,0.00,0.00,VWS V14.01,2013-10-05 05:26:00,
2013-10-05 00:31:00,61.4,53.4,29.79,NE,46,14.0,15.0,75,0.45,,---,0.00,0.00,VWS V14.01,2013-10-05 05:31:00,
2013-10-05 00:36:00,61.4,53.4,29.80,North,355,12.0,22.0,75,0.29,,---,0.00,0.00,VWS V14.01,2013-10-05 05:36:00,
2013-10-05 00:41:00,61.5,53.2,29.80,North,5,19.0,19.0,74,0.10,,---,0.00,0.00,VWS V14.01,2013-10-05 05:41:00,
2013-10-05 00:46:00,61.5,52.8,29.80,NNW,329,15.0,22.0,73,0.02,,---,0.00,0.00,VWS V14.01,2013-10-05 05:46:00,
2013-10-05 00:51:00,61.7,51.8,29.80,NNW,344,12.0,20.0,70,0.00,,---,0.00,0.00,VWS V14.01,2013-10-05 05:51:00,
2013-10-05 00:56:00,61.8,51.9,29.80,NNW,346,17.0,17.0,70,0.00,,---,0.00,0.00,VWS V14.01,2013-10-05 05:56:00,
2013-10-05 01:01:00,61.8,51.1,29.80,NNE,17,20.0,20.0,68,0.00,,---,0.00,0.00,VWS V14.01,2013-10-05 06:01:00,
2013-10-05 01:06:00,61.9,50.8,29.81,North,355,20.0,20.0,67,0.00,,---,0.00,0.00,VWS V14.01,2013-10-05 06:06:00,
2013-10-05 01:11:00,61.9,49.6,29.82,NNW,347,14.0,14.0,64,0.00,,---,0.00,0.00,VWS V14.01,2013-10-05 06:11:00,
2013-10-05 01:16:00,61.8,48.7,29.82,NNW,337,16.0,16.0,62,0.00,,---,0.00,0.00,VWS V14.01,2013-10-05 06:16:00,
2013-10-05 01:21:00,61.7,48.1,29.82,North,11,8.0,9.0,61,0.00,,---,0.00,0.00,VWS V14.01,2013-10-05 06:21:00,
2013-10-05 01:26:00,61.6,48.5,29.82,NNE,12,16.0,17.0,62,0.00,,---,0.00,0.00,VWS V14.01,2013-10-05 06:26:00,
2013-10-05 01:31:00,61.4,47.8,29.82,North,355,11.0,11.0,61,0.00,,---,0.00,0.00,VWS V14.01,2013-10-05 06:31:00,
2013-10-05 01:36:00,61.2,47.2,29.83,NNW,348,18.0,21.0,60,0.00,,---,0.00,0.00,VWS V14.01,2013-10-05 06:36:00,
2013-10-05 01:41:00,61.1,47.1,29.83,NNE,16,14.0,14.0,60,0.00,,---,0.00,0.00,VWS V14.01,2013-10-05 06:41:00,
2013-10-05 01:46:00,61.1,46.7,29.83,WNW,295,15.0,15.0,59,0.00,,---,0.00,0.00,VWS V14.01,2013-10-05 06:46:00,
2013-10-05 01:51:00,61.1,46.2,29.84,North,360,12.0,15.0,58,0.00,,---,0.00,0.00,VWS V14.01,2013-10-05 06:51:00,
2013-10-05 01:56:00,61.1,46.2,29.84,North,350,16.0,16.0,58,0.00,,---,0.00,0.00,VWS V14.01,2013-10-05 06:56:00,
2013-10-05 02:01:00,60.9,46.0,29.85,North,355,13.0,13.0,58,0.00,,---,0.00,0.00,VWS V14.01,2013-10-05 07:01:00,
2013-10-05 02:06:00,60.6,45.8,29.85,NNW,343,16.0,16.0,58,0.00,,---,0.00,0.00,VWS V14.01,2013-10-05 07:06:00,
2013-10-05 02:11:00,60.3,45.0,29.85,NNE,28,13.0,13.0,57,0.00,,---,0.00,0.00,VWS V14.01,2013-10-05 07:11:00,
2013-10-05 02:16:00,60.1,44.8,29.86,North,350,12.0,15.0,57,0.00,,---,0.00,0.00,VWS V14.01,2013-10-05 07:16:00,
2013-10-05 02:21:00,60.0,44.3,29.86,NNE,14,20.0,26.0,56,0.00,,---,0.00,0.00,VWS V14.01,2013-10-05 07:21:00,
2013-10-05 02:26:00,60.0,43.8,29.88,NNW,340,11.0,11.0,55,0.00,,---,0.00,0.00,VWS V14.01,2013-10-05 07:26:00,
2013-10-05 02:31:00,59.9,43.7,29.88,North,360,14.0,14.0,55,0.00,,---,0.00,0.00,VWS V14.01,2013-10-05 07:31:00,
2013-10-05 02:36:00,59.8,43.1,29.88,NE,48,14.0,14.0,54,0.00,,---,0.00,0.00,VWS V14.01,2013-10-05 07:36:00,
2013-10-05 02:41:00,59.8,43.1,29.88,North,5,10.0,18.0,54,0.00,,---,0.00,0.00,VWS V14.01,2013-10-05 07:41:00,
2013-10-05 02:46:00,59.6,43.9,29.88,NNW,342,11.0,14.0,56,0.00,,---,0.00,0.00,VWS V14.01,2013-10-05 07:46:00,
2013-10-05 02:51:00,59.4,44.2,29.89,North,355,10.0,17.0,57,0.00,,---,0.00,0.00,VWS V14.01,2013-10-05 07:51:00,
2013-10-05 02:56:00,59.3,44.5,29.89,North,350,10.0,17.0,58,0.00,,---,0.00,0.00,VWS V14.01,2013-10-05 07:56:00,
2013-10-05 03:01:00,59.0,44.3,29.89,NNE,20,6.0,10.0,58,0.00,,---,0.00,0.00,VWS V14.01,2013-10-05 08:01:00,
2013-10-05 03:06:00,58.7,43.5,29.89,North,360,14.0,16.0,57,0.00,,---,0.00,0.00,VWS V14.01,2013-10-05 08:06:00,
2013-10-05 03:11:00,58.7,43.1,29.89,NW,321,10.0,18.0,56,0.00,,---,0.00,0.00,VWS V14.01,2013-10-05 08:11:00,
2013-10-05 03:16:00,58.7,41.6,29.90,NW,313,11.0,21.0,53,0.00,,---,0.00,0.00,VWS V14.01,2013-10-05 08:16:00,
2013-10-05 03:21:00,58.6,41.0,29.90,NNW,330,16.0,21.0,52,0.00,,---,0.00,0.00,VWS V14.01,2013-10-05 08:21:00,
2013-10-05 03:26:00,58.6,41.5,29.90,NNW,347,11.0,17.0,53,0.00,,---,0.00,0.00,VWS V14.01,2013-10-05 08:26:00,
2013-10-05 03:31:00,58.5,41.5,29.90,NNW,345,9.0,16.0,53,0.00,,---,0.00,0.00,VWS V14.01,2013-10-05 08:31:00,
2013-10-05 03:36:00,58.4,41.8,29.91,North,5,15.0,15.0,54,0.00,,---,0.00,0.00,VWS V14.01,2013-10-05 08:36:00,
2013-10-05 03:41:00,58.4,42.3,29.91,North,5,10.0,15.0,55,0.00,,---,0.00,0.00,VWS V14.01,2013-10-05 08:41:00,
2013-10-05 03:46:00,58.2,42.6,29.91,NNW,338,15.0,15.0,56,0.00,,---,0.00,0.00,VWS V14.01,2013-10-05 08:46:00,
2013-10-05 03:51:00,57.8,41.3,29.91,NNW,339,9.0,19.0,54,0.00,,---,0.00,0.00,VWS V14.01,2013-10-05 08:51:00,
2013-10-05 03:56:00,57.5,41.0,29.92,NW,324,13.0,16.0,54,0.00,,---,0.00,0.00,VWS V14.01,2013-10-05 08:56:00,
2013-10-05 04:01:00,57.3,40.3,29.92,NW,321,9.0,19.0,53,0.00,,---,0.00,0.00,VWS V14.01,2013-10-05 09:01:00,
2013-10-05 04:06:00,57.2,40.2,29.91,NNW,331,9.0,16.0,53,0.00,,---,0.00,0.00,VWS V14.01,2013-10-05 09:06:00,
2013-10-05 04:11:00,57.1,39.7,29.92,North,355,12.0,19.0,52,0.00,,---,0.00,0.00,VWS V14.01,2013-10-05 09:11:00,
2013-10-05 04:16:00,57.0,39.1,29.92,NNE,30,16.0,20.0,51,0.00,,---,0.00,0.00,VWS V14.01,2013-10-05 09:16:00,
2013-10-05 04:21:00,56.9,39.0,29.92,North,350,18.0,21.0,51,0.00,,---,0.00,0.00,VWS V14.01,2013-10-05 09:21:00,
2013-10-05 04:26:00,56.9,39.0,29.92,NW,324,6.0,15.0,51,0.00,,---,0.00,0.00,VWS V14.01,2013-10-05 09:26:00,
2013-10-05 04:31:00,56.8,38.9,29.92,North,360,11.0,21.0,51,0.00,,---,0.00,0.00,VWS V14.01,2013-10-05 09:31:00,
2013-10-05 04:36:00,56.7,39.8,29.93,NNW,328,6.0,17.0,53,0.00,,---,0.00,0.00,VWS V14.01,2013-10-05 09:36:00,
2013-10-05 04:41:00,56.6,39.7,29.93,North,355,10.0,16.0,53,0.00,,---,0.00,0.00,VWS V14.01,2013-10-05 09:41:00,
2013-10-05 04:46:00,56.3,37.4,29.93,North,355,17.0,27.0,49,0.00,,---,0.00,0.00,VWS V14.01,2013-10-05 09:46:00,
2013-10-05 04:51:00,56.1,37.7,29.94,NNW,333,11.0,24.0,50,0.00,,---,0.00,0.00,VWS V14.01,2013-10-05 09:51:00,
2013-10-05 04:56:00,56.0,37.6,29.94,North,355,19.0,24.0,50,0.00,,---,0.00,0.00,VWS V14.01,2013-10-05 09:56:00,
2013-10-05 05:01:00,55.9,37.5,29.95,NW,325,14.0,24.0,50,0.00,,---,0.00,0.00,VWS V14.01,2013-10-05 10:01:00,
2013-10-05 05:06:00,55.9,38.0,29.95,NNE,22,12.0,15.0,51,0.00,,---,0.00,0.00,VWS V14.01,2013-10-05 10:06:00,
2013-10-05 05:11:00,55.8,38.0,29.95,North,5,13.0,21.0,51,0.00,,---,0.00,0.00,VWS V14.01,2013-10-05 10:11:00,
2013-10-05 05:16:00,55.7,37.9,29.95,NNW,346,13.0,25.0,51,0.00,,---,0.00,0.00,VWS V14.01,2013-10-05 10:16:00,
2013-10-05 05:21:00,55.7,38.8,29.95,NW,323,9.0,18.0,53,0.00,,---,0.00,0.00,VWS V14.01,2013-10-05 10:21:00,
2013-10-05 05:26:00,55.6,38.8,29.95,NNW,340,15.0,18.0,53,0.00,,---,0.00,0.00,VWS V14.01,2013-10-05 10:26:00,
2013-10-05 05:31:00,55.5,39.1,29.95,NNW,335,7.0,13.0,54,0.00,,---,0.00,0.00,VWS V14.01,2013-10-05 10:31:00,
2013-10-05 05:36:00,55.4,39.0,29.95,NNW,331,11.0,14.0,54,0.00,,---,0.00,0.00,VWS V14.01,2013-10-05 10:36:00,
2013-10-05 05:41:00,55.3,39.0,29.96,NW,317,10.0,17.0,54,0.00,,---,0.00,0.00,VWS V14.01,2013-10-05 10:41:00,
2013-10-05 05:46:00,55.2,39.3,29.96,North,355,11.0,15.0,55,0.00,,---,0.00,0.00,VWS V14.01,2013-10-05 10:46:00,
2013-10-05 05:51:00,55.1,38.8,29.96,North,349,9.0,17.0,54,0.00,,---,0.00,0.00,VWS V14.01,2013-10-05 10:51:00,
2013-10-05 05:56:00,55.0,39.2,29.97,NW,325,6.0,13.0,55,0.00,,---,0.00,0.00,VWS V14.01,2013-10-05 10:56:00,
2013-10-05 06:01:00,55.0,39.6,29.97,NW,317,12.0,14.0,56,0.00,,---,0.00,0.00,VWS V14.01,2013-10-05 11:01:00,
2013-10-05 06:06:00,54.9,39.0,29.97,NW,318,12.0,19.0,55,0.00,,---,0.00,0.00,VWS V14.01,2013-10-05 11:06:00,
2013-10-05 06:11:00,54.9,38.1,29.97,NNW,342,20.0,20.0,53,0.00,,---,0.00,0.00,VWS V14.01,2013-10-05 11:11:00,
2013-10-05 06:16:00,54.8,38.0,29.98,NNW,340,11.0,16.0,53,0.00,,---,0.00,0.00,VWS V14.01,2013-10-05 11:16:00,
2013-10-05 06:21:00,54.7,37.9,29.98,NNW,333,13.0,14.0,53,0.00,,---,0.00,0.00,VWS V14.01,2013-10-05 11:21:00,
2013-10-05 06:26:00,54.6,38.3,29.98,NNW,335,10.0,20.0,54,0.00,,---,0.00,0.00,VWS V14.01,2013-10-05 11:26:00,
2013-10-05 06:31:00,54.4,37.2,29.99,NNW,333,19.0,19.0,52,0.00,,---,0.00,0.00,VWS V14.01,2013-10-05 11:31:00,
2013-10-05 06:36:00,54.3,36.6,29.99,NNW,337,13.0,21.0,51,0.00,,---,0.00,0.00,VWS V14.01,2013-10-05 11:36:00,
2013-10-05 06:41:00,54.2,37.0,29.99,North,9,10.0,15.0,52,0.00,,---,0.00,0.00,VWS V14.01,2013-10-05 11:41:00,
2013-10-05 06:46:00,54.1,36.9,29.99,North,355,11.0,18.0,52,0.00,,---,0.00,0.00,VWS V14.01,2013-10-05 11:46:00,
2013-10-05 06:51:00,54.0,37.3,29.99,NW,320,11.0,16.0,53,0.00,,---,0.00,0.00,VWS V14.01,2013-10-05 11:51:00,
2013-10-05 06:56:00,53.9,37.2,30.00,NW,311,11.0,19.0,53,0.00,,---,0.00,0.00,VWS V14.01,2013-10-05 11:56:00,
2013-10-05 07:01:00,53.8,36.1,30.00,NNE,24,12.0,16.0,51,0.00,,---,0.00,0.00,VWS V14.01,2013-10-05 12:01:00,
2013-10-05 07:06:00,53.7,36.0,30.00,NNW,348,20.0,21.0,51,0.00,,---,0.00,0.00,VWS V14.01,2013-10-05 12:06:00,
2013-10-05 07:11:00,53.7,36.0,29.99,NNW,336,15.0,20.0,51,0.00,,---,0.00,0.00,VWS V14.01,2013-10-05 12:11:00,
2013-10-05 07:16:00,53.6,36.4,30.00,North,355,13.0,15.0,52,0.00,,---,0.00,0.00,VWS V14.01,2013-10-05 12:16:00,
2013-10-05 07:21:00,53.5,36.8,30.00,North,355,16.0,16.0,53,0.00,,---,0.00,0.00,VWS V14.01,2013-10-05 12:21:00,
2013-10-05 07:26:00,53.5,36.8,30.00,NNW,327,5.0,14.0,53,0.00,,---,0.00,0.00,VWS V14.01,2013-10-05 12:26:00,
2013-10-05 07:31:00,53.5,37.8,30.01,NNW,342,7.0,9.0,55,0.00,,---,0.00,0.00,VWS V14.01,2013-10-05 12:31:00,
2013-10-05 07:36:00,53.4,37.7,30.01,North,355,6.0,13.0,55,0.00,,---,0.00,0.00,VWS V14.01,2013-10-05 12:36:00,
2013-10-05 07:41:00,53.3,38.5,30.01,NW,315,11.0,17.0,57,0.00,,---,0.00,0.00,VWS V14.01,2013-10-05 12:41:00,
2013-10-05 07:46:00,53.2,37.5,30.01,NW,326,17.0,18.0,55,0.00,,---,0.00,7.00,VWS V14.01,2013-10-05 12:46:00,
2013-10-05 07:51:00,53.0,36.8,30.01,NNW,331,13.0,17.0,54,0.00,,---,0.00,9.00,VWS V14.01,2013-10-05 12:51:00,
2013-10-05 07:56:00,53.0,36.3,30.01,North,349,15.0,17.0,53,0.00,,---,0.00,11.00,VWS V14.01,2013-10-05 12:56:00,
2013-10-05 08:01:00,53.0,36.3,30.01,NNW,340,6.0,18.0,53,0.00,,---,0.00,11.00,VWS V14.01,2013-10-05 13:01:00,
2013-10-05 08:06:00,53.1,36.9,30.02,NW,325,11.0,13.0,54,0.00,,---,0.00,16.00,VWS V14.01,2013-10-05 13:06:00,
2013-10-05 08:11:00,53.1,36.4,30.02,NNW,329,20.0,22.0,53,0.00,,---,0.00,23.00,VWS V14.01,2013-10-05 13:11:00,
2013-10-05 08:16:00,53.1,36.9,30.03,NNW,333,11.0,12.0,54,0.00,,---,0.00,28.00,VWS V14.01,2013-10-05 13:16:00,
2013-10-05 08:21:00,53.1,36.9,30.03,NW,320,14.0,14.0,54,0.00,,---,0.00,30.00,VWS V14.01,2013-10-05 13:21:00,
2013-10-05 08:26:00,53.2,37.0,30.04,NNW,344,5.0,13.0,54,0.00,,---,0.00,39.00,VWS V14.01,2013-10-05 13:26:00,
2013-10-05 08:31:00,53.2,36.5,30.04,NW,324,9.0,13.0,53,0.00,,---,0.00,42.00,VWS V14.01,2013-10-05 13:31:00,
2013-10-05 08:36:00,53.3,36.6,30.05,North,349,13.0,13.0,53,0.00,,---,0.00,46.00,VWS V14.01,2013-10-05 13:36:00,
2013-10-05 08:40:00,53.3,36.1,30.05,NW,320,15.0,16.0,52,0.00,,---,0.00,53.00,VWS V14.01,2013-10-05 13:40:00,
2013-10-05 08:46:00,53.4,36.2,30.05,NW,304,10.0,13.0,52,0.00,,---,0.00,63.00,VWS V14.01,2013-10-05 13:46:00,
2013-10-05 08:51:00,53.5,36.3,30.05,NNW,340,9.0,14.0,52,0.00,,---,0.00,63.00,VWS V14.01,2013-10-05 13:51:00,
2013-10-05 08:56:00,53.5,36.3,30.05,NNW,338,13.0,16.0,52,0.00,,---,0.00,83.00,VWS V14.01,2013-10-05 13:56:00,
2013-10-05 09:01:00,53.6,35.4,30.05,North,360,11.0,17.0,50,0.00,,---,0.00,90.00,VWS V14.01,2013-10-05 14:01:00,
2013-10-05 09:05:00,53.7,35.5,30.06,NW,313,10.0,17.0,50,0.00,,---,0.00,79.00,VWS V14.01,2013-10-05 14:05:00,
2013-10-05 09:10:00,53.7,35.0,30.06,North,355,10.0,15.0,49,0.00,,---,0.00,93.00,VWS V14.01,2013-10-05 14:10:00,
2013-10-05 09:15:00,53.7,35.0,30.06,NNW,345,14.0,14.0,49,0.00,,---,0.00,109.00,VWS V14.01,2013-10-05 14:15:00,
2013-10-05 09:20:00,53.7,35.5,30.06,NNW,342,7.0,15.0,50,0.00,,---,0.00,120.00,VWS V14.01,2013-10-05 14:20:00,
2013-10-05 09:25:00,53.7,35.0,30.07,NNW,344,13.0,19.0,49,0.00,,---,0.00,134.00,VWS V14.01,2013-10-05 14:25:00,
2013-10-05 09:30:00,53.9,35.2,30.06,NNW,342,13.0,15.0,49,0.00,,---,0.00,169.00,VWS V14.01,2013-10-05 14:30:00,
2013-10-05 09:35:00,54.0,34.8,30.06,NNW,338,11.0,11.0,48,0.00,,---,0.00,125.00,VWS V14.01,2013-10-05 14:35:00,
2013-10-05 09:40:00,54.1,35.4,30.07,North,355,12.0,12.0,49,0.00,,---,0.00,141.00,VWS V14.01,2013-10-05 14:40:00,
2013-10-05 09:45:00,54.3,35.6,30.07,North,5,11.0,12.0,49,0.00,,---,0.00,167.00,VWS V14.01,2013-10-05 14:45:00,
2013-10-05 09:50:00,54.5,35.8,30.07,NNW,343,7.0,14.0,49,0.00,,---,0.00,292.00,VWS V14.01,2013-10-05 14:50:00,
2013-10-05 09:55:00,55.0,35.7,30.07,NNW,338,7.0,16.0,48,0.00,,---,0.00,190.00,VWS V14.01,2013-10-05 14:55:00,
2013-10-05 10:00:00,55.2,35.9,30.07,NNW,331,5.0,11.0,48,0.00,,---,0.00,171.00,VWS V14.01,2013-10-05 15:00:00,
2013-10-05 10:05:00,55.3,36.5,30.07,North,355,15.0,15.0,49,0.00,,---,0.00,176.00,VWS V14.01,2013-10-05 15:05:00,
2013-10-05 10:10:00,55.2,35.9,30.07,North,355,11.0,12.0,48,0.00,,---,0.00,234.00,VWS V14.01,2013-10-05 15:10:00,
2013-10-05 10:15:00,55.3,36.0,30.07,North,5,9.0,13.0,48,0.00,,---,0.00,148.00,VWS V14.01,2013-10-05 15:15:00,
2013-10-05 10:20:00,55.6,35.7,30.07,NNW,334,11.0,13.0,47,0.00,,---,0.00,431.00,VWS V14.01,2013-10-05 15:20:00,
2013-10-05 10:25:00,56.2,36.8,30.07,NNW,348,11.0,18.0,48,0.00,,---,0.00,211.00,VWS V14.01,2013-10-05 15:25:00,
2013-10-05 10:30:00,56.5,35.4,30.07,NNW,339,6.0,13.0,45,0.00,,---,0.00,214.00,VWS V14.01,2013-10-05 15:30:00,
2013-10-05 10:35:00,56.8,35.1,30.08,North,355,15.0,20.0,44,0.00,,---,0.00,200.00,VWS V14.01,2013-10-05 15:35:00,
2013-10-05 10:40:00,56.8,34.6,30.08,NNW,335,13.0,16.0,43,0.00,,---,0.00,272.00,VWS V14.01,2013-10-05 15:40:00,
2013-10-05 10:45:00,57.2,35.5,30.08,North,5,13.0,19.0,44,0.00,,---,0.00,613.00,VWS V14.01,2013-10-05 15:45:00,
2013-10-05 10:50:00,58.2,35.2,30.08,North,11,15.0,16.0,42,0.00,,---,0.00,675.00,VWS V14.01,2013-10-05 15:50:00,
2013-10-05 10:55:00,59.0,35.3,30.08,North,11,11.0,18.0,41,0.00,,---,0.00,677.00,VWS V14.01,2013-10-05 15:55:00,
2013-10-05 11:00:00,59.2,34.9,30.08,North,5,12.0,16.0,40,0.00,,---,0.00,396.00,VWS V14.01,2013-10-05 16:00:00,
2013-10-05 11:05:00,59.1,34.2,30.08,NE,42,13.0,20.0,39,0.00,,---,0.00,369.00,VWS V14.01,2013-10-05 16:05:00,
2013-10-05 11:10:00,58.4,34.2,30.08,North,351,15.0,18.0,40,0.00,,---,0.00,360.00,VWS V14.01,2013-10-05 16:10:00,
2013-10-05 11:15:00,58.3,34.1,30.08,NW,321,13.0,16.0,40,0.00,,---,0.00,538.00,VWS V14.01,2013-10-05 16:15:00,
2013-10-05 11:20:00,58.5,34.9,30.08,NNW,340,8.0,13.0,41,0.00,,---,0.00,817.00,VWS V14.01,2013-10-05 16:20:00,
2013-10-05 11:25:00,59.2,35.5,30.08,NNE,32,16.0,17.0,41,0.00,,---,0.00,819.00,VWS V14.01,2013-10-05 16:25:00,
2013-10-05 11:30:00,59.3,35.0,30.08,NNW,348,7.0,12.0,40,0.00,,---,0.00,756.00,VWS V14.01,2013-10-05 16:30:00,
2013-10-05 11:35:00,59.6,36.5,30.08,NNE,22,7.0,15.0,42,0.00,,---,0.00,780.00,VWS V14.01,2013-10-05 16:35:00,
2013-10-05 11:40:00,60.1,35.7,30.08,North,355,7.0,13.0,40,0.00,,---,0.00,759.00,VWS V14.01,2013-10-05 16:40:00,
2013-10-05 11:45:00,60.5,36.1,30.08,NNE,33,10.0,11.0,40,0.00,,---,0.00,824.00,VWS V14.01,2013-10-05 16:45:00,
2013-10-05 11:50:00,60.7,35.6,30.07,NE,53,11.0,15.0,39,0.00,,---,0.00,582.00,VWS V14.01,2013-10-05 16:50:00,
2013-10-05 11:55:00,60.4,36.0,30.07,North,355,14.0,14.0,40,0.00,,---,0.00,737.00,VWS V14.01,2013-10-05 16:55:00,
2013-10-05 12:01:00,60.9,35.8,30.07,North,5,6.0,12.0,39,0.00,,---,0.00,749.00,VWS V14.01,2013-10-05 17:01:00,
2013-10-05 12:06:00,61.1,36.0,30.07,North,10,13.0,13.0,39,0.00,,---,0.00,744.00,VWS V14.01,2013-10-05 17:06:00,
2013-10-05 12:11:00,61.4,35.6,30.07,NNE,32,10.0,11.0,38,0.00,,---,0.00,747.00,VWS V14.01,2013-10-05 17:11:00,
2013-10-05 12:16:00,61.6,35.1,30.07,NNE,32,15.0,18.0,37,0.00,,---,0.00,756.00,VWS V14.01,2013-10-05 17:16:00,
2013-10-05 12:21:00,61.5,35.7,30.07,NNW,336,10.0,17.0,38,0.00,,---,0.00,759.00,VWS V14.01,2013-10-05 17:21:00,
2013-10-05 12:26:00,62.0,36.8,30.07,North,9,10.0,15.0,39,0.00,,---,0.00,768.00,VWS V14.01,2013-10-05 17:26:00,
2013-10-05 12:31:00,62.4,35.8,30.07,NNW,333,9.0,15.0,37,0.00,,---,0.00,772.00,VWS V14.01,2013-10-05 17:31:00,
2013-10-05 12:36:00,62.5,35.9,30.06,NNW,340,12.0,16.0,37,0.00,,---,0.00,775.00,VWS V14.01,2013-10-05 17:36:00,
2013-10-05 12:41:00,62.7,36.1,30.06,NNW,342,7.0,14.0,37,0.00,,---,0.00,780.00,VWS V14.01,2013-10-05 17:41:00,
2013-10-05 12:46:00,62.7,35.4,30.06,North,355,11.0,19.0,36,0.00,,---,0.00,784.00,VWS V14.01,2013-10-05 17:46:00,
2013-10-05 12:51:00,62.8,35.5,30.06,NW,323,5.0,13.0,36,0.00,,---,0.00,789.00,VWS V14.01,2013-10-05 17:51:00,
2013-10-05 12:56:00,63.0,36.3,30.06,NW,317,7.0,8.0,37,0.00,,---,0.00,791.00,VWS V14.01,2013-10-05 17:56:00,
2013-10-05 13:01:00,63.2,36.5,30.06,North,355,15.0,15.0,37,0.00,,---,0.00,795.00,VWS V14.01,2013-10-05 18:01:00,
2013-10-05 13:06:00,63.3,35.9,30.06,NW,325,17.0,17.0,36,0.00,,---,0.00,803.00,VWS V14.01,2013-10-05 18:06:00,
2013-10-05 13:11:00,63.8,37.0,30.06,NW,311,7.0,9.0,37,0.00,,---,0.00,807.00,VWS V14.01,2013-10-05 18:11:00,
2013-10-05 13:16:00,64.1,36.6,30.06,NW,316,12.0,16.0,36,0.00,,---,0.00,823.00,VWS V14.01,2013-10-05 18:16:00,
2013-10-05 13:21:00,63.9,35.7,30.05,NNW,338,13.0,16.0,35,0.00,,---,0.00,824.00,VWS V14.01,2013-10-05 18:21:00,
2013-10-05 13:25:00,64.2,36.0,30.05,NW,323,14.0,16.0,35,0.00,,---,0.00,826.00,VWS V14.01,2013-10-05 18:25:00,
2013-10-05 13:30:00,64.3,36.8,30.05,NNE,32,8.0,16.0,36,0.00,,---,0.00,816.00,VWS V14.01,2013-10-05 18:30:00,
2013-10-05 13:35:00,64.5,35.5,30.04,NNW,328,15.0,19.0,34,0.00,,---,0.00,816.00,VWS V14.01,2013-10-05 18:35:00,
2013-10-05 13:40:00,64.9,36.6,30.04,NW,320,15.0,15.0,35,0.00,,---,0.00,821.00,VWS V14.01,2013-10-05 18:40:00,
2013-10-05 13:45:00,64.9,35.9,30.04,NNW,340,12.0,17.0,34,0.00,,---,0.00,807.00,VWS V14.01,2013-10-05 18:45:00,
2013-10-05 13:50:00,64.9,35.9,30.04,NW,309,12.0,12.0,34,0.00,,---,0.00,800.00,VWS V14.01,2013-10-05 18:50:00,
2013-10-05 13:55:00,65.4,37.1,30.03,NNE,12,15.0,16.0,35,0.00,,---,0.00,803.00,VWS V14.01,2013-10-05 18:55:00,
2013-10-05 14:00:00,65.8,35.9,30.03,North,351,7.0,14.0,33,0.00,,---,0.00,788.00,VWS V14.01,2013-10-05 19:00:00,
2013-10-05 14:05:00,65.9,37.5,30.03,NNW,338,16.0,16.0,35,0.00,,---,0.00,793.00,VWS V14.01,2013-10-05 19:05:00,
2013-10-05 14:10:00,66.3,37.1,30.03,NNW,346,13.0,19.0,34,0.00,,---,0.00,788.00,VWS V14.01,2013-10-05 19:10:00,
2013-10-05 14:15:00,66.2,37.8,30.03,NNW,343,12.0,16.0,35,0.00,,---,0.00,796.00,VWS V14.01,2013-10-05 19:15:00,
2013-10-05 14:20:00,66.3,37.8,30.03,North,350,11.0,14.0,35,0.00,,---,0.00,782.00,VWS V14.01,2013-10-05 19:20:00,
2013-10-05 14:25:00,66.0,36.8,30.02,NNW,341,13.0,19.0,34,0.00,,---,0.00,773.00,VWS V14.01,2013-10-05 19:25:00,
2013-10-05 14:30:00,66.2,36.3,30.02,North,355,10.0,16.0,33,0.00,,---,0.00,766.00,VWS V14.01,2013-10-05 19:30:00,
2013-10-05 14:35:00,66.3,36.4,30.02,NNW,331,13.0,15.0,33,0.00,,---,0.00,761.00,VWS V14.01,2013-10-05 19:35:00,
2013-10-05 14:40:00,66.3,36.4,30.01,North,355,11.0,16.0,33,0.00,,---,0.00,754.00,VWS V14.01,2013-10-05 19:40:00,
2013-10-05 14:45:00,66.4,37.2,30.01,NNW,346,15.0,15.0,34,0.00,,---,0.00,749.00,VWS V14.01,2013-10-05 19:45:00,
2013-10-05 14:50:00,66.9,36.9,30.01,NNW,339,10.0,14.0,33,0.00,,---,0.00,742.00,VWS V14.01,2013-10-05 19:50:00,
2013-10-05 14:55:00,66.9,37.7,30.01,North,355,5.0,11.0,34,0.00,,---,0.00,737.00,VWS V14.01,2013-10-05 19:55:00,
2013-10-05 15:00:00,66.9,36.9,30.00,NNW,348,7.0,7.0,33,0.00,,---,0.00,724.00,VWS V14.01,2013-10-05 20:00:00,
2013-10-05 15:05:00,67.0,37.0,30.00,NNW,333,12.0,13.0,33,0.00,,---,0.00,717.00,VWS V14.01,2013-10-05 20:05:00,
2013-10-05 15:10:00,67.2,37.2,30.00,NNW,334,16.0,16.0,33,0.00,,---,0.00,710.00,VWS V14.01,2013-10-05 20:10:00,
2013-10-05 15:15:00,67.6,37.5,30.00,North,355,14.0,19.0,33,0.00,,---,0.00,701.00,VWS V14.01,2013-10-05 20:15:00,
2013-10-05 15:20:00,67.7,36.0,30.00,North,5,10.0,12.0,31,0.00,,---,0.00,693.00,VWS V14.01,2013-10-05 20:20:00,
2013-10-05 15:25:00,67.7,36.0,30.00,NNE,13,18.0,20.0,31,0.00,,---,0.00,682.00,VWS V14.01,2013-10-05 20:25:00,
2013-10-05 15:30:00,67.9,37.0,30.00,North,355,6.0,13.0,32,0.00,,---,0.00,671.00,VWS V14.01,2013-10-05 20:30:00,
2013-10-05 15:35:00,68.5,37.5,30.00,WNW,288,11.0,15.0,32,0.00,,---,0.00,664.00,VWS V14.01,2013-10-05 20:35:00,
2013-10-05 15:40:00,68.9,37.0,30.00,NNW,329,7.0,9.0,31,0.00,,---,0.00,652.00,VWS V14.01,2013-10-05 20:40:00,
2013-10-05 15:45:00,68.9,37.8,30.00,North,5,5.0,14.0,32,0.00,,---,0.00,640.00,VWS V14.01,2013-10-05 20:45:00,
2013-10-05 15:50:00,69.1,37.2,30.00,NNW,347,10.0,14.0,31,0.00,,---,0.00,629.00,VWS V14.01,2013-10-05 20:50:00,
2013-10-05 15:55:00,69.0,37.1,30.00,NW,316,10.0,15.0,31,0.00,,---,0.00,613.00,VWS V14.01,2013-10-05 20:55:00,
2013-10-05 16:00:00,68.8,37.0,30.00,NNW,328,9.0,14.0,31,0.00,,---,0.00,603.00,VWS V14.01,2013-10-05 21:00:00,
2013-10-05 16:05:00,69.0,37.1,30.00,NNW,336,7.0,9.0,31,0.00,,---,0.00,589.00,VWS V14.01,2013-10-05 21:05:00,
2013-10-05 16:10:00,69.2,36.5,30.00,NW,315,2.0,9.0,30,0.00,,---,0.00,575.00,VWS V14.01,2013-10-05 21:10:00,
2013-10-05 16:15:00,69.3,37.4,30.00,NNE,13,11.0,11.0,31,0.00,,---,0.00,561.00,VWS V14.01,2013-10-05 21:15:00,
2013-10-05 16:20:00,69.3,36.6,30.00,NNW,339,13.0,13.0,30,0.00,,---,0.00,547.00,VWS V14.01,2013-10-05 21:20:00,
2013-10-05 16:25:00,69.3,36.6,30.00,North,355,9.0,12.0,30,0.00,,---,0.00,533.00,VWS V14.01,2013-10-05 21:25:00,
2013-10-05 16:30:00,69.5,35.0,30.00,North,355,7.0,13.0,28,0.00,,---,0.00,519.00,VWS V14.01,2013-10-05 21:30:00,
2013-10-05 16:35:00,69.3,35.7,30.00,NNW,336,4.0,11.0,29,0.00,,---,0.00,503.00,VWS V14.01,2013-10-05 21:35:00,
2013-10-05 16:40:00,69.5,35.9,30.00,WNW,296,6.0,7.0,29,0.00,,---,0.00,487.00,VWS V14.01,2013-10-05 21:40:00,
2013-10-05 16:45:00,69.7,36.0,29.99,NW,321,11.0,15.0,29,0.00,,---,0.00,475.00,VWS V14.01,2013-10-05 21:45:00,
2013-10-05 16:50:00,69.7,36.0,29.99,NW,308,6.0,8.0,29,0.00,,---,0.00,459.00,VWS V14.01,2013-10-05 21:50:00,
2013-10-05 16:55:00,69.9,35.3,29.99,WNW,303,12.0,15.0,28,0.00,,---,0.00,441.00,VWS V14.01,2013-10-05 21:55:00,
2013-10-05 17:00:00,69.7,35.2,29.99,NNW,329,12.0,13.0,28,0.00,,---,0.00,425.00,VWS V14.01,2013-10-05 22:00:00,
2013-10-05 17:05:00,69.7,35.2,29.99,North,360,12.0,13.0,28,0.00,,---,0.00,410.00,VWS V14.01,2013-10-05 22:05:00,
2013-10-05 17:10:00,69.7,35.2,29.99,NNE,28,9.0,12.0,28,0.00,,---,0.00,394.00,VWS V14.01,2013-10-05 22:10:00,
2013-10-05 17:15:00,69.7,35.2,29.99,NNW,330,4.0,10.0,28,0.00,,---,0.00,374.00,VWS V14.01,2013-10-05 22:15:00,
2013-10-05 17:20:00,69.8,35.3,29.99,NNW,328,13.0,13.0,28,0.00,,---,0.00,359.00,VWS V14.01,2013-10-05 22:20:00,
2013-10-05 17:25:00,69.9,35.3,29.99,NW,321,4.0,7.0,28,0.00,,---,0.00,343.00,VWS V14.01,2013-10-05 22:25:00,
2013-10-05 17:30:00,70.1,35.5,29.99,NW,323,6.0,8.0,28,0.00,,---,0.00,323.00,VWS V14.01,2013-10-05 22:30:00,
2013-10-05 17:35:00,70.1,36.4,29.99,NW,311,10.0,10.0,29,0.00,,---,0.00,308.00,VWS V14.01,2013-10-05 22:35:00,
2013-10-05 17:40:00,70.1,35.5,29.99,WNW,295,5.0,5.0,28,0.00,,---,0.00,290.00,VWS V14.01,2013-10-05 22:40:00,
2013-10-05 17:45:00,70.1,35.5,29.99,NW,323,6.0,7.0,28,0.00,,---,0.00,271.00,VWS V14.01,2013-10-05 22:45:00,
2013-10-05 17:50:00,69.9,35.3,29.99,NNW,327,9.0,9.0,28,0.00,,---,0.00,250.00,VWS V14.01,2013-10-05 22:50:00,
2013-10-05 17:55:00,69.7,35.2,29.99,NNW,342,5.0,6.0,28,0.00,,---,0.00,230.00,VWS V14.01,2013-10-05 22:55:00,
2013-10-05 18:00:00,69.7,34.3,29.99,NW,325,7.0,12.0,27,0.00,,---,0.00,209.00,VWS V14.01,2013-10-05 23:00:00,
2013-10-05 18:05:00,69.6,35.1,29.98,NNW,331,6.0,10.0,28,0.00,,---,0.00,186.00,VWS V14.01,2013-10-05 23:05:00,
2013-10-05 18:10:00,69.5,36.7,29.98,NNW,339,5.0,6.0,30,0.00,,---,0.00,163.00,VWS V14.01,2013-10-05 23:10:00,
2013-10-05 18:15:00,69.5,35.9,29.98,North,355,7.0,7.0,29,0.00,,---,0.00,142.00,VWS V14.01,2013-10-05 23:15:00,
2013-10-05 18:20:00,69.4,35.8,29.99,NNW,334,3.0,4.0,29,0.00,,---,0.00,121.00,VWS V14.01,2013-10-05 23:20:00,
2013-10-05 18:25:00,69.4,35.8,29.99,North,355,5.0,5.0,29,0.00,,---,0.00,105.00,VWS V14.01,2013-10-05 23:25:00,
2013-10-05 18:30:00,69.3,35.7,29.99,NNW,346,5.0,5.0,29,0.00,,---,0.00,86.00,VWS V14.01,2013-10-05 23:30:00,
2013-10-05 18:35:00,68.9,36.2,29.99,North,355,6.0,6.0,30,0.00,,---,0.00,65.00,VWS V14.01,2013-10-05 23:35:00,
2013-10-05 18:40:00,68.8,36.1,29.99,North,349,3.0,4.0,30,0.00,,---,0.00,53.00,VWS V14.01,2013-10-05 23:40:00,
2013-10-05 18:45:00,68.6,36.8,30.00,WNW,295,3.0,4.0,31,0.00,,---,0.00,30.00,VWS V14.01,2013-10-05 23:45:00,
2013-10-05 18:50:00,68.5,37.5,30.00,North,5,1.0,2.0,32,0.00,,---,0.00,28.00,VWS V14.01,2013-10-05 23:50:00,
2013-10-05 18:55:00,68.1,37.2,30.00,North,11,2.0,2.0,32,0.00,,---,0.00,21.00,VWS V14.01,2013-10-05 23:55:00,
2013-10-05 19:00:00,67.7,37.6,30.00,North,11,1.0,1.0,33,0.00,,---,0.00,18.00,VWS V14.01,2013-10-06 00:00:00,
2013-10-05 19:05:00,67.6,38.3,30.00,North,11,0.0,0.0,34,0.00,,---,0.00,14.00,VWS V14.01,2013-10-06 00:05:00,
2013-10-05 19:10:00,67.3,38.7,30.00,North,11,0.0,1.0,35,0.00,,---,0.00,9.00,VWS V14.01,2013-10-06 00:10:00,
2013-10-05 19:15:00,67.2,40.8,30.00,North,11,0.0,0.0,38,0.00,,---,0.00,5.00,VWS V14.01,2013-10-06 00:15:00,
2013-10-05 19:20:00,67.0,41.9,30.01,North,11,0.0,0.0,40,0.00,,---,0.00,0.00,VWS V14.01,2013-10-06 00:20:00,
2013-10-05 19:25:00,66.7,41.0,30.01,North,11,0.0,0.0,39,0.00,,---,0.00,0.00,VWS V14.01,2013-10-06 00:25:00,
2013-10-05 19:30:00,66.2,40.5,30.01,North,11,0.0,0.0,39,0.00,,---,0.00,0.00,VWS V14.01,2013-10-06 00:30:00,
2013-10-05 19:35:00,65.6,39.3,30.01,North,11,0.0,0.0,38,0.00,,---,0.00,0.00,VWS V14.01,2013-10-06 00:35:00,
2013-10-05 19:40:00,65.0,40.8,30.01,North,11,0.0,0.0,41,0.00,,---,0.00,0.00,VWS V14.01,2013-10-06 00:40:00,
2013-10-05 19:45:00,64.0,40.5,30.01,NNE,19,2.0,2.0,42,0.00,,---,0.00,0.00,VWS V14.01,2013-10-06 00:45:00,
2013-10-05 19:50:00,63.5,42.9,30.01,NNE,19,0.0,0.0,47,0.00,,---,0.00,0.00,VWS V14.01,2013-10-06 00:50:00,
2013-10-05 19:55:00,63.1,41.4,30.02,NNE,19,0.0,0.0,45,0.00,,---,0.00,0.00,VWS V14.01,2013-10-06 00:55:00,
2013-10-05 20:00:00,62.4,41.9,30.02,NNE,19,0.0,0.0,47,0.00,,---,0.00,0.00,VWS V14.01,2013-10-06 01:00:00,
2013-10-05 20:05:00,61.8,41.4,30.02,NNE,19,0.0,0.0,47,0.00,,---,0.00,0.00,VWS V14.01,2013-10-06 01:05:00,
2013-10-05 20:10:00,61.2,41.9,30.02,NNE,19,0.0,0.0,49,0.00,,---,0.00,0.00,VWS V14.01,2013-10-06 01:10:00,
2013-10-05 20:15:00,60.4,42.2,30.02,NNE,19,0.0,0.0,51,0.00,,---,0.00,0.00,VWS V14.01,2013-10-06 01:15:00,
2013-10-05 20:20:00,59.9,41.8,30.03,NNE,19,1.0,1.0,51,0.00,,---,0.00,0.00,VWS V14.01,2013-10-06 01:20:00,
2013-10-05 20:25:00,59.4,39.7,30.03,NNE,19,1.0,1.0,48,0.00,,---,0.00,0.00,VWS V14.01,2013-10-06 01:25:00,
2013-10-05 20:30:00,59.0,39.9,30.03,NNE,19,0.0,0.0,49,0.00,,---,0.00,0.00,VWS V14.01,2013-10-06 01:30:00,
2013-10-05 20:35:00,58.7,41.6,30.03,NNE,19,0.0,1.0,53,0.00,,---,0.00,0.00,VWS V14.01,2013-10-06 01:35:00,
2013-10-05 20:40:00,58.2,40.7,30.03,NNE,19,0.0,0.0,52,0.00,,---,0.00,0.00,VWS V14.01,2013-10-06 01:40:00,
2013-10-05 20:45:00,57.8,42.7,30.03,NNE,19,0.0,0.0,57,0.00,,---,0.00,0.00,VWS V14.01,2013-10-06 01:45:00,
2013-10-05 20:50:00,57.2,42.1,30.03,NNE,19,1.0,2.0,57,0.00,,---,0.00,0.00,VWS V14.01,2013-10-06 01:50:00,
2013-10-05 20:55:00,56.5,41.9,30.03,NNE,19,0.0,0.0,58,0.00,,---,0.00,0.00,VWS V14.01,2013-10-06 01:55:00,
2013-10-05 21:00:00,55.8,44.2,30.04,NNE,24,1.0,1.0,65,0.00,,---,0.00,0.00,VWS V14.01,2013-10-06 02:00:00,
2013-10-05 21:05:00,55.5,44.7,30.04,NNE,24,0.0,0.0,67,0.00,,---,0.00,0.00,VWS V14.01,2013-10-06 02:05:00,
2013-10-05 21:10:00,55.4,45.0,30.04,NNE,24,1.0,2.0,68,0.00,,---,0.00,0.00,VWS V14.01,2013-10-06 02:10:00,
2013-10-05 21:15:00,55.0,45.0,30.04,NNE,24,0.0,0.0,69,0.00,,---,0.00,0.00,VWS V14.01,2013-10-06 02:15:00,
2013-10-05 21:20:00,54.8,45.2,30.05,NNE,24,1.0,1.0,70,0.00,,---,0.00,0.00,VWS V14.01,2013-10-06 02:20:00,
2013-10-05 21:25:00,54.5,44.5,30.05,NNE,24,0.0,1.0,69,0.00,,---,0.00,0.00,VWS V14.01,2013-10-06 02:25:00,
2013-10-05 21:30:00,54.2,45.0,30.05,NNE,24,0.0,0.0,71,0.00,,---,0.00,0.00,VWS V14.01,2013-10-06 02:30:00,
2013-10-05 21:35:00,53.9,45.1,30.05,NNE,24,0.0,0.0,72,0.00,,---,0.00,0.00,VWS V14.01,2013-10-06 02:35:00,
2013-10-05 21:40:00,53.5,44.7,30.05,NNE,24,1.0,2.0,72,0.00,,---,0.00,0.00,VWS V14.01,2013-10-06 02:40:00,
2013-10-05 21:45:00,53.0,43.9,30.05,NNE,24,1.0,1.0,71,0.00,,---,0.00,0.00,VWS V14.01,2013-10-06 02:45:00,
2013-10-05 21:50:00,52.7,43.6,30.05,NNE,24,1.0,2.0,71,0.00,,---,0.00,0.00,VWS V14.01,2013-10-06 02:50:00,
2013-10-05 21:55:00,52.6,43.5,30.05,NNE,24,0.0,0.0,71,0.00,,---,0.00,0.00,VWS V14.01,2013-10-06 02:55:00,
2013-10-05 22:00:00,52.5,44.1,30.05,NNE,24,1.0,2.0,73,0.00,,---,0.00,0.00,VWS V14.01,2013-10-06 03:00:00,
2013-10-05 22:05:00,52.2,44.2,30.05,NNE,24,0.0,0.0,74,0.00,,---,0.00,0.00,VWS V14.01,2013-10-06 03:05:00,
2013-10-05 22:10:00,52.0,44.0,30.06,NNE,24,1.0,1.0,74,0.00,,---,0.00,0.00,VWS V14.01,2013-10-06 03:10:00,
2013-10-05 22:15:00,51.7,44.0,30.06,NNE,24,1.0,1.0,75,0.00,,---,0.00,0.00,VWS V14.01,2013-10-06 03:15:00,
2013-10-05 22:20:00,51.5,43.8,30.06,NNE,24,1.0,1.0,75,0.00,,---,0.00,0.00,VWS V14.01,2013-10-06 03:20:00,
2013-10-05 22:25:00,51.3,43.7,30.06,NNE,24,1.0,1.0,75,0.00,,---,0.00,0.00,VWS V14.01,2013-10-06 03:25:00,
2013-10-05 22:30:00,51.1,43.8,30.05,NNE,25,1.0,2.0,76,0.00,,---,0.00,0.00,VWS V14.01,2013-10-06 03:30:00,
2013-10-05 22:35:00,50.8,43.9,30.06,NNE,25,1.0,2.0,77,0.00,,---,0.00,0.00,VWS V14.01,2013-10-06 03:35:00,
2013-10-05 22:40:00,50.6,43.7,30.06,NNE,25,1.0,1.0,77,0.00,,---,0.00,0.00,VWS V14.01,2013-10-06 03:40:00,
2013-10-05 22:45:00,50.4,43.8,30.06,NNE,25,1.0,1.0,78,0.00,,---,0.00,0.00,VWS V14.01,2013-10-06 03:45:00,
2013-10-05 22:50:00,50.3,43.7,30.06,NNE,25,1.0,1.0,78,0.00,,---,0.00,0.00,VWS V14.01,2013-10-06 03:50:00,
2013-10-05 22:55:00,50.0,43.4,30.06,NNE,25,1.0,2.0,78,0.00,,---,0.00,0.00,VWS V14.01,2013-10-06 03:55:00,
2013-10-05 23:00:00,49.8,43.6,30.06,NNE,25,0.0,0.0,79,0.00,,---,0.00,0.00,VWS V14.01,2013-10-06 04:00:00,
2013-10-05 23:01:00,49.8,43.6,30.06,NNE,25,1.0,1.0,79,0.00,,---,0.00,0.00,VWS V14.01,2013-10-06 04:01:00,
2013-10-05 23:02:00,49.7,43.5,30.06,NNE,25,0.0,1.0,79,0.00,,---,0.00,0.00,VWS V14.01,2013-10-06 04:02:00,
2013-10-05 23:07:00,49.6,43.7,30.06,NNE,25,1.0,2.0,80,0.00,,---,0.00,0.00,VWS V14.01,2013-10-06 04:07:00,
2013-10-05 23:12:00,49.4,43.5,30.06,NNE,25,0.0,1.0,80,0.00,,---,0.00,0.00,VWS V14.01,2013-10-06 04:12:00,
2013-10-05 23:17:00,49.2,43.3,30.06,NNE,25,0.0,0.0,80,0.00,,---,0.00,0.00,VWS V14.01,2013-10-06 04:17:00,
2013-10-05 23:22:00,49.1,43.2,30.06,NNE,25,0.0,1.0,80,0.00,,---,0.00,0.00,VWS V14.01,2013-10-06 04:22:00,
2013-10-05 23:27:00,49.0,43.1,30.06,NNE,25,0.0,1.0,80,0.00,,---,0.00,0.00,VWS V14.01,2013-10-06 04:27:00,
2013-10-05 23:32:00,49.0,43.1,30.06,NNE,25,1.0,1.0,80,0.00,,---,0.00,0.00,VWS V14.01,2013-10-06 04:32:00,
2013-10-05 23:37:00,48.9,43.0,30.06,NNE,25,1.0,1.0,80,0.00,,---,0.00,0.00,VWS V14.01,2013-10-06 04:37:00,
2013-10-05 23:42:00,48.8,42.9,30.05,NNE,25,1.0,2.0,80,0.00,,---,0.00,0.00,VWS V14.01,2013-10-06 04:42:00,
2013-10-05 23:47:00,48.8,42.6,30.05,NNE,25,1.0,2.0,79,0.00,,---,0.00,0.00,VWS V14.01,2013-10-06 04:47:00,
2013-10-05 23:52:00,48.7,42.5,30.05,NNE,25,1.0,1.0,79,0.00,,---,0.00,0.00,VWS V14.01,2013-10-06 04:52:00,
2013-10-05 23:57:00,48.7,42.5,30.06,NNE,28,1.0,2.0,79,0.00,,---,0.00,0.00,VWS V14.01,2013-10-06 04:57:00,